Time;durP1;ratioP1;P1;durP2;ratioP2;P2;SDS_P1;SDS_P2;PMS_P1;PMS_P2;Temp;Humidity;BMP_temperature;BMP_pressure;BME280_temperature;BME280_humidity;BME280_pressure;Samples;Min_cycle;Max_cycle;Signal;HPM_P1;HPM_P2
2023/03/08 00:00:17;;;;;;;42.85;19.95;;;-0.50;99.90;;;;;;6221794;23;20008;-88
2023/03/08 00:02:43;;;;;;;41.47;20.08;;;-0.50;99.90;;;;;;6222194;23;20058;-89
2023/03/08 00:05:10;;;;;;;37.78;19.80;;;-0.50;99.90;;;;;;6249309;22;20004;-89
2023/03/08 00:07:36;;;;;;;33.05;17.75;;;-0.50;99.90;;;;;;6223384;23;20008;-89
2023/03/08 00:10:03;;;;;;;39.55;19.13;;;-0.50;99.90;;;;;;6223203;23;20486;-89
2023/03/08 00:12:29;;;;;;;35.15;18.75;;;-0.50;99.90;;;;;;6224245;23;20000;-88
2023/03/08 00:14:54;;;;;;;37.65;19.38;;;-0.50;99.90;;;;;;6224023;23;20438;-88
2023/03/08 00:17:21;;;;;;;37.40;19.00;;;-0.50;99.90;;;;;;6224296;22;20819;-89
2023/03/08 00:19:46;;;;;;;39.80;20.42;;;-0.60;99.90;;;;;;6224655;22;20012;-89
2023/03/08 00:22:12;;;;;;;34.88;18.45;;;-0.50;99.90;;;;;;6224170;23;20016;-88
2023/03/08 00:24:41;;;;;;;38.65;19.52;;;-0.50;99.90;;;;;;6224703;23;20004;-89
2023/03/08 00:27:07;;;;;;;45.03;18.95;;;-0.60;99.90;;;;;;6224651;23;20004;-87
2023/03/08 00:29:33;;;;;;;37.90;19.90;;;-0.60;99.90;;;;;;6225730;22;20071;-88
2023/03/08 00:31:59;;;;;;;35.03;18.10;;;-0.60;99.90;;;;;;6225754;23;20004;-87
2023/03/08 00:34:24;;;;;;;38.45;19.08;;;-0.60;99.90;;;;;;6225304;23;20486;-88
2023/03/08 00:36:50;;;;;;;37.97;17.90;;;-0.60;99.90;;;;;;6226178;23;20042;-89
2023/03/08 00:39:16;;;;;;;37.25;17.77;;;-0.60;99.90;;;;;;6226637;23;20000;-88
2023/03/08 00:41:42;;;;;;;35.55;18.50;;;-0.60;99.90;;;;;;6225626;23;20035;-88
2023/03/08 00:44:08;;;;;;;39.47;19.33;;;-0.60;99.90;;;;;;6224494;23;20004;-88
2023/03/08 00:46:34;;;;;;;38.88;20.27;;;-0.60;99.90;;;;;;6224794;23;20071;-89
2023/03/08 00:49:00;;;;;;;38.38;19.40;;;-0.70;99.90;;;;;;6225090;23;20000;-88
2023/03/08 00:51:26;;;;;;;39.97;19.63;;;-0.70;99.90;;;;;;6224831;23;20001;-89
2023/03/08 00:53:55;;;;;;;40.40;19.05;;;-0.70;99.90;;;;;;6226558;23;20032;-89
2023/03/08 00:56:21;;;;;;;39.08;18.33;;;-0.80;99.90;;;;;;6225426;23;20008;-88
2023/03/08 00:58:47;;;;;;;35.33;19.17;;;-0.80;99.90;;;;;;6224631;23;20019;-86
2023/03/08 01:01:15;;;;;;;39.83;18.88;;;-0.70;99.90;;;;;;6224804;22;20008;-88
2023/03/08 01:03:41;;;;;;;42.30;19.58;;;-0.70;99.90;;;;;;6223687;22;20011;-88
2023/03/08 01:06:14;;;;;;;41.47;19.13;;;-0.70;99.90;;;;;;6223332;23;19996;-88
2023/03/08 01:08:43;;;;;;;43.97;19.35;;;-0.70;99.90;;;;;;6223207;23;20004;-89
2023/03/08 01:11:20;;;;;;;45.42;19.63;;;-0.70;99.90;;;;;;6222395;23;20011;-88
2023/03/08 01:13:47;;;;;;;39.88;18.98;;;-0.80;99.90;;;;;;6223080;23;20011;-88
2023/03/08 01:16:22;;;;;;;42.75;20.02;;;-0.70;99.90;;;;;;6221017;23;20023;-88
2023/03/08 01:18:49;;;;;;;44.35;20.48;;;-0.70;99.90;;;;;;6222567;22;20008;-87
2023/03/08 01:21:16;;;;;;;45.35;19.85;;;-0.80;99.90;;;;;;6220965;23;20485;-89
2023/03/08 01:23:42;;;;;;;37.03;18.42;;;-0.80;99.90;;;;;;6221986;23;20000;-87
2023/03/08 01:26:14;;;;;;;42.20;20.00;;;-0.80;99.90;;;;;;6223649;23;20004;-88
2023/03/08 01:28:40;;;;;;;39.40;20.20;;;-0.80;99.90;;;;;;6224116;23;20405;-89
2023/03/08 01:31:19;;;;;;;43.30;19.25;;;-0.90;99.90;;;;;;6223460;23;20024;-88
2023/03/08 01:33:46;;;;;;;41.88;19.60;;;-0.90;99.90;;;;;;6221956;23;20000;-87
2023/03/08 01:36:15;;;;;;;39.75;20.70;;;-0.90;99.90;;;;;;6221113;23;20008;-88
2023/03/08 01:38:42;;;;;;;41.35;19.48;;;-1.00;99.90;;;;;;6246581;22;20019;-89
2023/03/08 01:41:20;;;;;;;39.03;19.67;;;-1.00;99.90;;;;;;6220579;23;20086;-89
2023/03/08 01:43:46;;;;;;;41.83;19.08;;;-0.90;99.90;;;;;;6219716;23;20008;-88
2023/03/08 01:46:20;;;;;;;43.65;18.73;;;-0.90;99.90;;;;;;6221141;23;20004;-88
2023/03/08 01:48:49;;;;;;;41.53;20.23;;;-0.90;99.90;;;;;;6221037;23;20007;-88
2023/03/08 01:51:21;;;;;;;42.13;20.58;;;-0.90;99.90;;;;;;6219791;23;20031;-89
2023/03/08 01:53:47;;;;;;;39.37;20.20;;;-0.90;99.90;;;;;;6220059;23;20067;-89
2023/03/08 01:56:16;;;;;;;42.65;20.75;;;-0.90;99.90;;;;;;6219701;23;20335;-89
2023/03/08 01:58:43;;;;;;;43.95;22.80;;;-0.90;99.90;;;;;;6220146;23;20012;-89
2023/03/08 02:01:09;;;;;;;46.15;22.10;;;-0.80;99.90;;;;;;6220023;23;20343;-89
2023/03/08 02:03:35;;;;;;;52.65;24.63;;;-0.80;99.90;;;;;;6220061;23;20027;-88
2023/03/08 02:06:03;;;;;;;51.63;24.30;;;-0.80;99.90;;;;;;6220730;23;20083;-88
2023/03/08 02:08:30;;;;;;;50.20;24.42;;;-0.80;99.90;;;;;;6220805;23;20000;-89
2023/03/08 02:10:58;;;;;;;47.17;24.30;;;-0.80;99.90;;;;;;6220168;23;20000;-88
2023/03/08 02:13:25;;;;;;;55.38;25.88;;;-0.80;99.90;;;;;;6219591;23;19996;-89
2023/03/08 02:15:54;;;;;;;62.78;28.02;;;-0.80;99.90;;;;;;6222334;23;20062;-88
2023/03/08 02:18:20;;;;;;;55.90;26.88;;;-0.80;99.90;;;;;;6221162;23;20016;-88
2023/03/08 02:20:49;;;;;;;59.33;27.40;;;-0.80;99.90;;;;;;6222374;23;20012;-87
2023/03/08 02:23:18;;;;;;;55.90;25.67;;;-0.80;99.90;;;;;;6222379;23;20013;-89
2023/03/08 02:26:03;;;;;;;57.50;27.77;;;-0.80;99.90;;;;;;6222983;23;20004;-89
2023/03/08 02:28:31;;;;;;;65.15;29.65;;;-0.80;99.90;;;;;;6222610;23;20015;-88
2023/03/08 02:30:58;;;;;;;62.85;29.63;;;-0.80;99.90;;;;;;6222913;23;20011;-88
2023/03/08 02:33:27;;;;;;;62.60;29.77;;;-0.70;99.90;;;;;;6222009;23;20011;-88
2023/03/08 02:35:52;;;;;;;71.50;32.05;;;-0.70;99.90;;;;;;6223432;23;20039;-88
2023/03/08 02:38:23;;;;;;;70.70;32.15;;;-0.70;99.90;;;;;;6222851;22;20031;-87
2023/03/08 02:40:52;;;;;;;73.60;33.50;;;-0.70;99.90;;;;;;6223450;23;20449;-88
2023/03/08 02:43:18;;;;;;;78.05;35.00;;;-0.70;99.90;;;;;;6250270;22;20469;-88
2023/03/08 02:45:45;;;;;;;85.00;36.85;;;-0.70;99.90;;;;;;6223138;23;20054;-88
2023/03/08 02:48:13;;;;;;;91.82;37.80;;;-0.70;99.90;;;;;;6223183;23;20058;-87
2023/03/08 02:50:39;;;;;;;94.00;38.72;;;-0.60;99.90;;;;;;6250230;22;20003;-87
2023/03/08 02:53:05;;;;;;;116.65;39.72;;;-0.50;99.90;;;;;;6222029;23;20008;-87
2023/03/08 02:55:33;;;;;;;106.55;40.20;;;-0.40;99.90;;;;;;6222690;23;20069;-88
2023/03/08 02:57:59;;;;;;;126.43;38.55;;;-0.40;99.90;;;;;;6222177;23;20012;-87
2023/03/08 03:00:25;;;;;;;138.77;42.80;;;-0.30;99.90;;;;;;6222127;23;20002;-88
2023/03/08 03:02:51;;;;;;;178.68;40.72;;;-0.20;99.90;;;;;;6222799;23;20011;-87
2023/03/08 03:05:17;;;;;;;182.43;44.47;;;-0.20;99.90;;;;;;6222603;23;19996;-88
2023/03/08 03:07:43;;;;;;;308.38;46.20;;;-0.10;99.90;;;;;;6222082;23;20102;-88
2023/03/08 03:10:10;;;;;;;288.92;44.88;;;-0.10;99.90;;;;;;6222368;23;20069;-87
2023/03/08 03:12:36;;;;;;;313.17;46.72;;;0.00;99.90;;;;;;6222409;23;20044;-87
2023/03/08 03:15:04;;;;;;;263.65;45.28;;;0.00;99.90;;;;;;6223099;23;20004;-87
2023/03/08 03:17:30;;;;;;;277.75;47.15;;;0.00;99.90;;;;;;6223995;23;20008;-88
2023/03/08 03:19:56;;;;;;;282.20;45.35;;;0.00;99.90;;;;;;6223595;23;20000;-88
2023/03/08 03:22:22;;;;;;;327.05;47.35;;;0.10;99.90;;;;;;6221251;23;20435;-87
2023/03/08 03:24:51;;;;;;;284.70;45.75;;;0.10;99.90;;;;;;6223643;23;20007;-88
2023/03/08 03:27:18;;;;;;;306.17;48.38;;;0.10;99.90;;;;;;6220175;23;20040;-88
2023/03/08 03:29:44;;;;;;;302.80;45.63;;;0.10;99.90;;;;;;6221269;23;20008;-88
2023/03/08 03:32:10;;;;;;;460.40;49.47;;;0.10;99.90;;;;;;6220550;23;20008;-88
2023/03/08 03:34:36;;;;;;;430.08;45.83;;;0.10;99.90;;;;;;6221500;23;20007;-88
2023/03/08 03:37:02;;;;;;;528.85;52.85;;;0.20;99.90;;;;;;6220783;23;20030;-87
2023/03/08 03:39:33;;;;;;;360.75;43.90;;;0.20;99.90;;;;;;6220337;23;19996;-87
2023/03/08 03:42:02;;;;;;;492.92;49.90;;;0.20;99.90;;;;;;6220670;23;20427;-89
2023/03/08 03:44:29;;;;;;;394.80;46.70;;;0.20;99.90;;;;;;6220891;23;20008;-88
2023/03/08 03:46:56;;;;;;;288.88;51.30;;;0.20;99.90;;;;;;6220568;23;20050;-88
2023/03/08 03:49:21;;;;;;;302.42;50.30;;;0.20;99.90;;;;;;6220500;23;20027;-87
2023/03/08 03:51:47;;;;;;;373.52;58.45;;;0.20;99.90;;;;;;6220817;23;20004;-87
2023/03/08 03:54:13;;;;;;;361.58;51.38;;;0.20;99.90;;;;;;6219579;23;20007;-87
2023/03/08 03:56:39;;;;;;;359.23;52.78;;;0.30;99.90;;;;;;6220039;23;20083;-86
2023/03/08 03:59:04;;;;;;;313.45;52.25;;;0.30;99.90;;;;;;6220349;23;20079;-88
2023/03/08 04:01:31;;;;;;;522.50;59.42;;;0.30;99.90;;;;;;6246905;22;20004;-88
2023/03/08 04:03:57;;;;;;;414.17;56.40;;;0.30;99.90;;;;;;6247732;22;19996;-87
2023/03/08 04:06:26;;;;;;;246.35;47.67;;;0.30;99.90;;;;;;6219161;23;20012;-88
2023/03/08 04:08:54;;;;;;;607.00;63.78;;;0.30;99.90;;;;;;6246751;23;20000;-88
2023/03/08 04:11:23;;;;;;;486.98;56.67;;;0.30;99.90;;;;;;6220770;23;20535;-87
2023/03/08 04:13:49;;;;;;;493.25;58.42;;;0.30;99.90;;;;;;6220505;23;19996;-88
2023/03/08 04:16:20;;;;;;;516.20;57.20;;;0.30;99.90;;;;;;6220213;23;20008;-88
2023/03/08 04:18:47;;;;;;;338.73;52.08;;;0.30;99.90;;;;;;6219764;23;20008;-87
2023/03/08 04:21:13;;;;;;;412.00;56.03;;;0.30;99.90;;;;;;6220513;23;20058;-88
2023/03/08 04:23:40;;;;;;;562.25;58.90;;;0.40;99.90;;;;;;6220185;23;20073;-87
2023/03/08 04:26:09;;;;;;;427.10;52.78;;;0.40;99.90;;;;;;6220005;23;20013;-88
2023/03/08 04:28:35;;;;;;;447.35;56.92;;;0.40;99.90;;;;;;6219170;23;20488;-88
2023/03/08 04:31:15;;;;;;;269.02;49.40;;;0.40;99.90;;;;;;6220472;23;20000;-87
2023/03/08 04:33:44;;;;;;;406.77;55.00;;;0.40;99.90;;;;;;6219925;23;20083;-87
2023/03/08 04:36:11;;;;;;;463.27;53.58;;;0.40;99.90;;;;;;6219703;23;20073;-88
2023/03/08 04:38:38;;;;;;;282.98;50.22;;;0.50;99.90;;;;;;6219677;23;20012;-87
2023/03/08 04:41:09;;;;;;;213.10;48.78;;;0.50;99.90;;;;;;6218641;23;20011;-88
2023/03/08 04:43:38;;;;;;;580.20;59.55;;;0.40;99.90;;;;;;6220828;23;20031;-87
2023/03/08 04:46:06;;;;;;;252.43;50.58;;;0.50;99.90;;;;;;6219609;23;19996;-88
2023/03/08 04:48:33;;;;;;;483.92;54.08;;;0.50;99.90;;;;;;6219142;23;20077;-89
2023/03/08 04:51:03;;;;;;;214.88;47.05;;;0.50;99.90;;;;;;6219351;23;20050;-88
2023/03/08 04:53:30;;;;;;;223.13;47.35;;;0.50;99.90;;;;;;6219723;23;20087;-88
2023/03/08 04:56:00;;;;;;;360.75;51.65;;;0.40;99.90;;;;;;6220293;23;20130;-89
2023/03/08 04:58:27;;;;;;;387.63;50.03;;;0.50;99.90;;;;;;6218986;23;20398;-89
2023/03/08 05:00:54;;;;;;;295.77;47.45;;;0.50;99.90;;;;;;6220112;23;20004;-88
2023/03/08 05:03:20;;;;;;;347.45;52.33;;;0.50;99.90;;;;;;6219436;22;20004;-88
2023/03/08 05:05:51;;;;;;;407.63;49.75;;;0.50;99.90;;;;;;6220300;23;20334;-87
2023/03/08 05:08:17;;;;;;;421.30;55.25;;;0.50;99.90;;;;;;6220519;23;20003;-87
2023/03/08 05:11:01;;;;;;;284.42;49.22;;;0.50;99.90;;;;;;6221842;23;20553;-88
2023/03/08 05:13:30;;;;;;;318.80;50.55;;;0.50;99.90;;;;;;6223332;23;19996;-88
2023/03/08 05:15:56;;;;;;;385.02;50.58;;;0.50;99.90;;;;;;6221952;23;20015;-90
2023/03/08 05:18:22;;;;;;;392.35;51.30;;;0.50;99.90;;;;;;6218865;23;20008;-89
2023/03/08 05:21:00;;;;;;;364.63;47.70;;;0.50;99.90;;;;;;6219152;23;20046;-89
2023/03/08 05:23:27;;;;;;;313.27;49.35;;;0.50;99.90;;;;;;6218322;23;20004;-89
2023/03/08 05:25:55;;;;;;;349.38;49.65;;;0.50;99.90;;;;;;6217866;23;20512;-89
2023/03/08 05:28:22;;;;;;;306.92;44.88;;;0.50;99.90;;;;;;6219784;23;20894;-89
2023/03/08 05:30:48;;;;;;;266.40;43.78;;;0.50;99.90;;;;;;6219603;23;20000;-89
2023/03/08 05:33:15;;;;;;;310.60;45.17;;;0.50;99.90;;;;;;6220561;23;20000;-90
2023/03/08 05:35:41;;;;;;;231.32;45.92;;;0.50;99.90;;;;;;6220410;23;20000;-89
2023/03/08 05:38:07;;;;;;;297.27;42.08;;;0.50;99.90;;;;;;6222081;23;20131;-89
2023/03/08 05:40:32;;;;;;;270.60;46.65;;;0.50;99.90;;;;;;6222390;23;20448;-89
2023/03/08 05:42:58;;;;;;;265.52;47.83;;;0.60;99.90;;;;;;6246341;23;20075;-89
2023/03/08 05:45:23;;;;;;;194.23;46.40;;;0.60;99.90;;;;;;6219608;23;20338;-89
2023/03/08 05:47:49;;;;;;;343.85;50.42;;;0.50;99.90;;;;;;6247095;23;20130;-89
2023/03/08 05:50:15;;;;;;;246.88;47.10;;;0.60;99.90;;;;;;6246296;23;20004;-89
2023/03/08 05:52:44;;;;;;;314.17;50.05;;;0.60;99.90;;;;;;6220010;23;20014;-89
2023/03/08 05:55:09;;;;;;;386.83;51.53;;;0.60;99.90;;;;;;6218937;23;20001;-89
2023/03/08 05:57:35;;;;;;;275.17;47.58;;;0.60;99.90;;;;;;6219351;23;20008;-89
2023/03/08 06:00:03;;;;;;;430.90;53.03;;;0.60;99.90;;;;;;6219648;23;20083;-88
2023/03/08 06:02:29;;;;;;;325.33;50.65;;;0.60;99.90;;;;;;6245846;23;20001;-89
2023/03/08 06:04:54;;;;;;;234.07;47.38;;;0.60;99.90;;;;;;6219814;23;20003;-89
2023/03/08 06:07:20;;;;;;;316.73;48.85;;;0.60;99.90;;;;;;6219385;23;20406;-89
2023/03/08 06:09:45;;;;;;;207.82;45.40;;;0.70;99.90;;;;;;6218512;23;20323;-89
2023/03/08 06:12:11;;;;;;;244.73;41.30;;;0.70;99.90;;;;;;6218591;23;20000;-89
2023/03/08 06:14:36;;;;;;;277.77;48.17;;;0.70;99.90;;;;;;6222310;23;20060;-89
2023/03/08 06:17:02;;;;;;;322.48;50.00;;;0.70;99.90;;;;;;6223542;23;20043;-89
2023/03/08 06:19:27;;;;;;;259.80;47.75;;;0.70;99.90;;;;;;6220507;23;20050;-89
2023/03/08 06:21:53;;;;;;;231.93;47.95;;;0.70;99.90;;;;;;6218260;23;20063;-89
2023/03/08 06:24:18;;;;;;;225.75;50.03;;;0.70;99.90;;;;;;6218939;23;20000;-90
2023/03/08 06:26:44;;;;;;;249.95;49.03;;;0.70;99.90;;;;;;6218082;23;20079;-89
2023/03/08 06:29:09;;;;;;;222.02;47.13;;;0.70;99.90;;;;;;6219628;23;20091;-89
2023/03/08 06:31:35;;;;;;;190.80;45.88;;;0.80;99.90;;;;;;6218098;23;20000;-89
2023/03/08 06:34:00;;;;;;;197.00;44.53;;;0.80;99.90;;;;;;6219750;23;20338;-90
2023/03/08 06:36:26;;;;;;;218.20;47.22;;;0.80;99.90;;;;;;6218766;23;20365;-90
2023/03/08 06:38:52;;;;;;;179.48;41.65;;;0.80;99.90;;;;;;6219879;23;20012;-91
2023/03/08 06:41:18;;;;;;;198.27;44.22;;;0.80;99.90;;;;;;6219591;23;20103;-90
2023/03/08 06:43:44;;;;;;;237.48;49.38;;;0.80;99.90;;;;;;6219370;23;20004;-90
2023/03/08 06:46:12;;;;;;;229.02;47.20;;;0.80;99.90;;;;;;6218342;23;20031;-90
2023/03/08 06:48:38;;;;;;;180.85;46.22;;;0.90;99.90;;;;;;6219382;23;20008;-90
2023/03/08 06:51:04;;;;;;;207.32;47.15;;;0.90;99.90;;;;;;6218896;23;20501;-87
2023/03/08 06:53:31;;;;;;;211.23;44.45;;;0.90;99.90;;;;;;6219709;23;20004;-90
2023/03/08 06:55:56;;;;;;;177.63;45.30;;;0.90;99.90;;;;;;6219633;23;20072;-90
2023/03/08 06:58:22;;;;;;;174.48;42.92;;;0.90;99.90;;;;;;6221573;23;20042;-90
2023/03/08 07:00:47;;;;;;;177.82;44.88;;;0.90;99.90;;;;;;6221728;23;20024;-90
2023/03/08 07:03:13;;;;;;;157.25;39.08;;;0.90;99.90;;;;;;6220753;23;20062;-90
2023/03/08 07:05:40;;;;;;;152.35;43.10;;;0.90;99.90;;;;;;6220673;23;20000;-90
2023/03/08 07:08:06;;;;;;;165.48;41.47;;;0.90;99.90;;;;;;6220033;23;19997;-89
2023/03/08 07:10:32;;;;;;;154.50;42.42;;;1.00;99.90;;;;;;6219444;23;20442;-91
2023/03/08 07:12:58;;;;;;;150.65;40.88;;;0.90;99.90;;;;;;6222084;23;20428;-89
2023/03/08 07:15:24;;;;;;;170.85;43.67;;;1.00;99.90;;;;;;6222984;23;20008;-90
2023/03/08 07:17:54;;;;;;;172.43;43.15;;;1.00;99.90;;;;;;6220717;23;20026;-90
2023/03/08 07:20:21;;;;;;;153.90;42.65;;;1.00;99.90;;;;;;6221524;23;20054;-88
2023/03/08 07:22:47;;;;;;;156.43;40.03;;;1.00;99.90;;;;;;6221813;23;20007;-89
2023/03/08 07:25:15;;;;;;;153.30;42.22;;;1.00;99.90;;;;;;6248096;22;20063;-90
2023/03/08 07:27:41;;;;;;;142.95;41.58;;;1.00;99.90;;;;;;6221819;23;20087;-90
2023/03/08 07:30:08;;;;;;;154.10;42.40;;;1.10;99.90;;;;;;6221479;23;20004;-90
2023/03/08 07:32:34;;;;;;;159.32;40.50;;;1.10;99.90;;;;;;6221495;23;20396;-90
2023/03/08 07:35:00;;;;;;;147.07;42.58;;;1.10;99.90;;;;;;6220781;23;20124;-90
2023/03/08 07:37:25;;;;;;;155.75;42.92;;;1.10;99.90;;;;;;6219879;23;20095;-90
2023/03/08 07:39:51;;;;;;;169.60;43.20;;;1.10;99.90;;;;;;6221708;23;20000;-87
2023/03/08 07:42:17;;;;;;;162.23;42.38;;;1.10;99.90;;;;;;6221502;23;20008;-90
2023/03/08 07:44:42;;;;;;;144.73;39.50;;;1.20;99.90;;;;;;6222434;23;20488;-89
2023/03/08 07:47:08;;;;;;;144.52;40.35;;;1.20;99.90;;;;;;6218497;23;20004;-88
2023/03/08 07:49:34;;;;;;;159.95;40.92;;;1.20;99.90;;;;;;6220615;23;20040;-89
2023/03/08 07:52:00;;;;;;;128.02;36.30;;;1.20;99.90;;;;;;6220721;23;20001;-89
2023/03/08 07:54:26;;;;;;;162.32;41.58;;;1.20;99.90;;;;;;6219759;23;20011;-88
2023/03/08 07:56:52;;;;;;;158.27;41.17;;;1.20;99.90;;;;;;6221235;23;20016;-88
2023/03/08 07:59:18;;;;;;;148.02;41.13;;;1.20;99.90;;;;;;6221062;23;20007;-90
2023/03/08 08:01:43;;;;;;;154.52;42.13;;;1.20;99.90;;;;;;6221002;23;20004;-90
2023/03/08 08:04:11;;;;;;;143.05;40.78;;;1.30;99.90;;;;;;6221312;23;20004;-89
2023/03/08 08:06:37;;;;;;;138.48;40.15;;;1.30;99.90;;;;;;6220486;23;20103;-89
2023/03/08 08:09:03;;;;;;;120.55;37.97;;;1.30;99.90;;;;;;6220307;23;20012;-87
2023/03/08 08:11:29;;;;;;;130.60;38.38;;;1.30;99.90;;;;;;6220035;23;20008;-89
2023/03/08 08:13:55;;;;;;;128.52;39.78;;;1.30;99.90;;;;;;6220479;23;20007;-88
2023/03/08 08:16:20;;;;;;;116.82;35.97;;;1.30;99.90;;;;;;6221066;23;20012;-89
2023/03/08 08:18:46;;;;;;;128.48;36.22;;;1.30;99.90;;;;;;6220867;23;20008;-88
2023/03/08 08:21:14;;;;;;;127.03;37.53;;;1.30;99.90;;;;;;6219865;22;20136;-88
2023/03/08 08:23:41;;;;;;;119.15;36.40;;;1.30;99.90;;;;;;6221575;23;20007;-88
2023/03/08 08:26:12;;;;;;;121.20;35.80;;;1.30;99.90;;;;;;6219851;23;20004;-88
2023/03/08 08:28:39;;;;;;;137.65;39.00;;;1.30;99.90;;;;;;6219514;23;20010;-88
2023/03/08 08:31:08;;;;;;;109.35;35.70;;;1.30;99.90;;;;;;6216473;23;20415;-87
2023/03/08 08:33:34;;;;;;;122.82;37.42;;;1.30;99.90;;;;;;6219907;23;20095;-88
2023/03/08 08:36:03;;;;;;;125.65;37.60;;;1.40;99.90;;;;;;6217875;23;20000;-88
2023/03/08 08:38:29;;;;;;;122.35;37.38;;;1.30;99.90;;;;;;6219016;23;20016;-87
2023/03/08 08:41:00;;;;;;;112.80;37.05;;;1.40;99.90;;;;;;6220107;23;19992;-87
2023/03/08 08:43:27;;;;;;;124.33;36.10;;;1.40;99.90;;;;;;6221087;23;20062;-87
2023/03/08 08:45:54;;;;;;;99.65;32.20;;;1.40;99.90;;;;;;6221426;23;20239;-87
2023/03/08 08:48:20;;;;;;;103.32;34.22;;;1.40;99.90;;;;;;6221422;23;20358;-87
2023/03/08 08:50:46;;;;;;;93.97;31.08;;;1.50;99.90;;;;;;6221040;23;20028;-88
2023/03/08 08:53:11;;;;;;;95.65;32.53;;;1.40;99.90;;;;;;6220088;23;20007;-88
2023/03/08 08:55:37;;;;;;;88.25;30.83;;;1.50;99.90;;;;;;6220504;23;20054;-87
2023/03/08 08:58:04;;;;;;;89.47;30.13;;;1.50;99.90;;;;;;6220415;23;20019;-88
2023/03/08 09:00:32;;;;;;;78.95;27.10;;;1.50;99.90;;;;;;6219986;23;20082;-88
2023/03/08 09:02:58;;;;;;;69.35;25.05;;;1.50;99.90;;;;;;6220155;23;20008;-87
2023/03/08 09:05:24;;;;;;;74.03;24.30;;;1.50;99.90;;;;;;6219586;23;20000;-87
2023/03/08 09:07:51;;;;;;;70.38;24.42;;;1.60;99.90;;;;;;6219012;23;20031;-87
2023/03/08 09:10:17;;;;;;;70.88;24.52;;;1.60;99.90;;;;;;6248497;23;20031;-88
2023/03/08 09:12:42;;;;;;;67.18;23.30;;;1.60;99.90;;;;;;6220438;23;20012;-87
2023/03/08 09:15:10;;;;;;;58.25;19.38;;;1.60;99.90;;;;;;6219786;22;20083;-88
2023/03/08 09:17:37;;;;;;;60.85;21.05;;;1.60;99.90;;;;;;6218616;23;20066;-88
2023/03/08 09:20:05;;;;;;;59.95;21.77;;;1.70;99.90;;;;;;6217497;23;20019;-87
2023/03/08 09:22:31;;;;;;;57.80;21.45;;;1.60;99.90;;;;;;6217640;23;20585;-88
2023/03/08 09:24:56;;;;;;;57.78;20.80;;;1.60;99.90;;;;;;6217681;23;20031;-87
2023/03/08 09:27:22;;;;;;;59.00;21.80;;;1.60;99.90;;;;;;6219173;23;20000;-88
2023/03/08 09:29:47;;;;;;;58.08;19.80;;;1.60;99.90;;;;;;6219830;23;20030;-87
2023/03/08 09:32:13;;;;;;;57.97;19.40;;;1.60;99.90;;;;;;6244938;22;20087;-88
2023/03/08 09:34:38;;;;;;;59.03;21.00;;;1.50;99.90;;;;;;6219121;23;20000;-88
2023/03/08 09:37:06;;;;;;;57.47;19.25;;;1.60;99.90;;;;;;6218805;22;20019;-88
2023/03/08 09:39:32;;;;;;;60.53;20.73;;;1.60;99.90;;;;;;6217869;23;20019;-88
2023/03/08 09:42:00;;;;;;;58.78;19.48;;;1.70;99.90;;;;;;6218458;23;20011;-87
2023/03/08 09:44:48;;;;;;;51.83;18.90;;;1.70;99.90;;;;;;6220126;23;20054;-87
2023/03/08 09:47:19;;;;;;;41.42;15.98;;;1.80;99.90;;;;;;6217957;23;20004;-87
2023/03/08 09:49:49;;;;;;;40.33;14.13;;;1.90;99.90;;;;;;6217874;23;20489;-87
2023/03/08 09:52:33;;;;;;;41.72;14.57;;;2.00;99.90;;;;;;6218473;23;20064;-87
2023/03/08 09:55:00;;;;;;;44.55;14.68;;;2.00;99.90;;;;;;6219482;23;20046;-86
2023/03/08 09:57:33;;;;;;;44.42;15.40;;;2.10;99.90;;;;;;6218836;23;20431;-86
2023/03/08 10:00:07;;;;;;;42.85;15.70;;;2.20;99.90;;;;;;6219629;23;20046;-86
2023/03/08 10:02:50;;;;;;;38.25;16.08;;;2.20;99.90;;;;;;6223667;22;20468;-86
2023/03/08 10:05:22;;;;;;;41.88;15.07;;;2.40;99.90;;;;;;6248224;22;20081;-85
2023/03/08 10:08:12;;;;;;;41.45;15.40;;;2.50;99.90;;;;;;6248459;22;20061;-86
2023/03/08 10:10:59;;;;;;;32.20;13.63;;;2.60;99.90;;;;;;6228893;23;20100;-85
2023/03/08 10:13:35;;;;;;;34.15;12.38;;;2.80;99.90;;;;;;6217031;23;20008;-85
2023/03/08 10:16:21;;;;;;;32.95;13.15;;;2.80;99.90;;;;;;6217396;22;20000;-84
2023/03/08 10:18:55;;;;;;;32.72;12.65;;;2.80;99.90;;;;;;6217049;23;20382;-85
2023/03/08 10:21:24;;;;;;;34.13;13.40;;;2.80;99.90;;;;;;6217792;23;20308;-84
2023/03/08 10:24:25;;;;;;;34.00;14.85;;;2.90;99.90;;;;;;6216759;23;20008;-84
2023/03/08 10:26:53;;;;;;;35.60;15.00;;;3.00;99.90;;;;;;6217736;23;20461;-84
2023/03/08 10:29:20;;;;;;;36.72;15.75;;;3.10;99.90;;;;;;6217047;23;20004;-84
2023/03/08 10:31:46;;;;;;;30.83;14.15;;;3.20;99.90;;;;;;6244531;23;20001;-84
2023/03/08 10:34:16;;;;;;;33.33;15.70;;;3.30;99.90;;;;;;6217606;23;20135;-85
2023/03/08 10:36:57;;;;;;;29.73;14.13;;;3.30;99.90;;;;;;6219651;23;20048;-85
2023/03/08 10:39:22;;;;;;;25.70;12.80;;;3.40;99.90;;;;;;6219876;23;20091;-84
2023/03/08 10:42:00;;;;;;;28.80;13.35;;;3.50;99.90;;;;;;6220044;22;20032;-84
2023/03/08 10:44:32;;;;;;;28.67;13.88;;;3.60;99.90;;;;;;6220548;23;20091;-85
2023/03/08 10:46:58;;;;;;;24.75;13.30;;;3.60;99.90;;;;;;6220109;23;20062;-84
2023/03/08 10:49:24;;;;;;;29.45;14.10;;;3.60;99.90;;;;;;6247019;23;20123;-85
2023/03/08 10:52:00;;;;;;;26.17;13.40;;;3.80;99.90;;;;;;6220135;23;20007;-85
2023/03/08 10:54:27;;;;;;;27.27;14.95;;;3.90;99.90;;;;;;6219273;23;20499;-85
2023/03/08 10:56:55;;;;;;;27.73;14.45;;;3.70;99.90;;;;;;6219939;23;20094;-85
2023/03/08 10:59:33;;;;;;;27.98;15.38;;;3.70;99.90;;;;;;6219718;23;20012;-85
2023/03/08 11:02:17;;;;;;;29.50;14.70;;;3.70;99.90;;;;;;6219464;23;20079;-84
2023/03/08 11:04:55;;;;;;;25.45;13.60;;;3.80;99.90;;;;;;6218472;23;20028;-85
2023/03/08 11:07:32;;;;;;;26.75;13.43;;;3.70;99.90;;;;;;6218466;23;20004;-85
2023/03/08 11:10:18;;;;;;;26.63;14.18;;;3.60;99.90;;;;;;6219787;22;20058;-86
2023/03/08 11:12:44;;;;;;;24.65;13.55;;;3.40;99.90;;;;;;6220583;23;20008;-85
2023/03/08 11:15:17;;;;;;;21.55;11.35;;;3.30;99.90;;;;;;6218808;23;20024;-85
2023/03/08 11:17:55;;;;;;;18.77;10.10;;;3.20;99.90;;;;;;6217389;23;20081;-84
2023/03/08 11:20:27;;;;;;;18.95;10.23;;;3.20;99.90;;;;;;6245319;23;20522;-84
2023/03/08 11:23:02;;;;;;;19.40;10.77;;;3.20;99.90;;;;;;6219733;23;20070;-85
2023/03/08 11:25:38;;;;;;;19.58;10.38;;;3.10;99.90;;;;;;6217840;23;20004;-84
2023/03/08 11:28:22;;;;;;;17.50;8.77;;;3.20;99.90;;;;;;6217818;23;20505;-84
2023/03/08 11:31:07;;;;;;;15.63;9.07;;;3.30;99.90;;;;;;6220793;23;20000;-84
2023/03/08 11:34:08;;;;;;;15.05;8.13;;;3.30;99.90;;;;;;6219734;23;20004;-86
2023/03/08 11:36:48;;;;;;;15.45;8.75;;;3.30;99.90;;;;;;6150805;23;19996;-85
2023/03/08 11:39:39;;;;;;;15.00;8.05;;;3.20;99.90;;;;;;6218444;23;20449;-85
2023/03/08 11:42:21;;;;;;;15.07;7.68;;;3.20;99.90;;;;;;6219710;23;20011;-84
2023/03/08 11:45:15;;;;;;;16.92;8.63;;;3.20;99.90;;;;;;6245424;23;20007;-85
2023/03/08 11:47:42;;;;;;;20.77;9.57;;;3.30;99.90;;;;;;6245910;23;20008;-85
2023/03/08 11:50:13;;;;;;;16.73;8.63;;;3.30;99.90;;;;;;6246427;23;19997;-84
2023/03/08 11:52:57;;;;;;;17.02;8.40;;;3.30;99.90;;;;;;6219582;23;20012;-85
2023/03/08 11:55:34;;;;;;;17.52;8.63;;;3.20;99.90;;;;;;6218960;22;20055;-84
2023/03/08 11:58:13;;;;;;;18.08;8.52;;;3.10;99.90;;;;;;6218496;23;20055;-85
2023/03/08 12:00:44;;;;;;;18.27;9.00;;;3.10;99.90;;;;;;6246348;22;19996;-84
2023/03/08 12:03:14;;;;;;;17.77;8.73;;;3.10;99.90;;;;;;6219543;23;20386;-85
2023/03/08 12:05:47;;;;;;;17.80;7.60;;;3.00;99.90;;;;;;6216382;23;20019;-84
2023/03/08 12:08:23;;;;;;;18.23;9.02;;;3.10;99.90;;;;;;6217104;23;20008;-84
2023/03/08 12:10:57;;;;;;;16.38;8.85;;;3.10;99.90;;;;;;6217576;23;20427;-85
2023/03/08 12:13:32;;;;;;;14.77;7.63;;;3.10;99.90;;;;;;6218981;23;20095;-85
2023/03/08 12:16:12;;;;;;;16.05;8.93;;;3.10;99.90;;;;;;6219501;23;20039;-85
2023/03/08 12:18:56;;;;;;;15.98;8.30;;;3.20;99.90;;;;;;6220000;23;20028;-85
2023/03/08 12:21:48;;;;;;;14.65;7.00;;;3.20;99.90;;;;;;6219814;23;20001;-85
2023/03/08 12:24:25;;;;;;;13.02;7.15;;;3.30;99.90;;;;;;6218170;23;20374;-85
2023/03/08 12:27:07;;;;;;;13.93;7.43;;;3.20;99.90;;;;;;6220286;23;20070;-85
2023/03/08 12:30:00;;;;;;;14.68;7.13;;;3.30;99.90;;;;;;6219043;23;20383;-85
2023/03/08 12:32:26;;;;;;;12.55;6.50;;;3.40;99.90;;;;;;6223892;23;20087;-85
2023/03/08 12:35:22;;;;;;;16.48;6.38;;;3.40;99.90;;;;;;6252332;23;20146;-85
2023/03/08 12:37:59;;;;;;;11.88;6.10;;;3.60;99.90;;;;;;6227052;23;20012;-86
2023/03/08 12:40:30;;;;;;;10.75;5.32;;;3.60;99.90;;;;;;6224681;23;20007;-85